Map

Track Data

SID SEASON NUMBER BASIN SUBBASIN NAME ISO_TIME NATURE LAT LON WMO_WIND WMO_PRES WMO_AGENCY TRACK_TYPE DIST2LAND LANDFALL IFLAG USA_AGENCY USA_ATCF_ID USA_LAT USA_LON USA_RECORD USA_STATUS USA_WIND USA_PRES USA_SSHS USA_R34_NE USA_R34_SE USA_R34_SW USA_R34_NW USA_R50_NE USA_R50_SE USA_R50_SW USA_R50_NW USA_R64_NE USA_R64_SE USA_R64_SW USA_R64_NW USA_POCI USA_ROCI USA_RMW USA_EYE TOKYO_LAT TOKYO_LON TOKYO_GRADE TOKYO_WIND TOKYO_PRES TOKYO_R50_DIR TOKYO_R50_LONG TOKYO_R50_SHORT TOKYO_R30_DIR TOKYO_R30_LONG TOKYO_R30_SHORT TOKYO_LAND CMA_LAT CMA_LON CMA_CAT CMA_WIND CMA_PRES HKO_LAT HKO_LON HKO_CAT HKO_WIND HKO_PRES NEWDELHI_LAT NEWDELHI_LON NEWDELHI_GRADE NEWDELHI_WIND NEWDELHI_PRES NEWDELHI_CI NEWDELHI_DP NEWDELHI_POCI REUNION_LAT REUNION_LON REUNION_TYPE REUNION_WIND REUNION_PRES REUNION_TNUM REUNION_CI REUNION_RMW REUNION_R34_NE REUNION_R34_SE REUNION_R34_SW REUNION_R34_NW REUNION_R50_NE REUNION_R50_SE REUNION_R50_SW REUNION_R50_NW REUNION_R64_NE REUNION_R64_SE REUNION_R64_SW REUNION_R64_NW BOM_LAT BOM_LON BOM_TYPE BOM_WIND BOM_PRES BOM_TNUM BOM_CI BOM_RMW BOM_R34_NE BOM_R34_SE BOM_R34_SW BOM_R34_NW BOM_R50_NE BOM_R50_SE BOM_R50_SW BOM_R50_NW BOM_R64_NE BOM_R64_SE BOM_R64_SW BOM_R64_NW BOM_ROCI BOM_POCI BOM_EYE BOM_POS_METHOD BOM_PRES_METHOD NADI_LAT NADI_LON NADI_CAT NADI_WIND NADI_PRES WELLINGTON_LAT WELLINGTON_LON WELLINGTON_WIND WELLINGTON_PRES DS824_LAT DS824_LON DS824_STAGE DS824_WIND DS824_PRES TD9636_LAT TD9636_LON TD9636_STAGE TD9636_WIND TD9636_PRES TD9635_LAT TD9635_LON TD9635_WIND TD9635_PRES TD9635_ROCI NEUMANN_LAT NEUMANN_LON NEUMANN_CLASS NEUMANN_WIND NEUMANN_PRES MLC_LAT MLC_LON MLC_CLASS MLC_WIND MLC_PRES USA_GUST BOM_GUST BOM_GUST_PER REUNION_GUST REUNION_GUST_PER USA_SEAHGT USA_SEARAD_NE USA_SEARAD_SE USA_SEARAD_SW USA_SEARAD_NW STORM_SPEED STORM_DIR
2000358N08086 2000 112 NI BB NOT_NAMED 2000-12-23 03:00:00 NR 8.00000 86.0000 25 1006 newdelhi main 465 439 ____O_________ -1 8.00000 86.0000 D 25 1006 1.50000 4 6 220
2000358N08086 2000 112 NI BB NOT_NAMED 2000-12-23 06:00:00 TS 7.76667 85.8000 25 1006 newdelhi main 439 396 O___O_________ jtwc_io IO042000 7.30000 85.4000 TD 30 -1 8.00000 86.0000 D 25 1006 1.50000 4 6 250
2000358N08086 2000 112 NI BB NOT_NAMED 2000-12-23 09:00:00 TS 7.78815 85.4219 main 396 353 P___P_________ IO042000 7.47001 85.2025 TD 30 -1 8.00023 85.5682 D 25 1006 4 8 274
2000358N08086 2000 112 NI BB NOT_NAMED 2000-12-23 12:00:00 TS 7.82857 85.0000 25 1006 newdelhi main 353 331 O___O_________ jtwc_io IO042000 7.60000 85.0000 TD 30 -1 8.00000 85.0000 D 25 1006 1.50000 4 7 274
2000358N08086 2000 112 NI BB NOT_NAMED 2000-12-23 15:00:00 TS 7.83245 84.7525 main 331 309 P___P_________ IO042000 7.66500 84.7925 TD 30 -1 7.99989 84.7125 D 25 1006 4 4 273
2000358N08086 2000 112 NI BB NOT_NAMED 2000-12-23 18:00:00 TS 7.85000 84.5500 25 1006 newdelhi main 310 276 O___O_________ jtwc_io IO042000 7.70000 84.6000 TD 30 -1 8.00000 84.5000 D 25 1006 1.50000 4 4 269
2000358N08086 2000 112 NI BB NOT_NAMED 2000-12-23 21:00:00 TS 7.82388 84.3169 main 276 265 P___P_________ IO042000 7.74999 84.4350 TD 30 -1 7.89776 84.1988 D 27 1005 5 4 277
2000358N08086 2000 112 NI BB NOT_NAMED 2000-12-24 00:00:00 TS 7.90000 84.1500 30 1004 newdelhi main 266 255 O___O_________ jtwc_io IO042000 7.80000 84.3000 TD 30 -1 8.00000 84.0000 DD 30 1004 2.00000 6 4 328
2000358N08086 2000 112 NI BB NOT_NAMED 2000-12-24 03:00:00 TS 8.17875 84.0963 30 1004 newdelhi main 262 262 P___O_________ IO042000 7.85749 84.1925 TD 30 -1 8.50000 84.0000 DD 30 1004 2.00000 6 3 343
2000358N08086 2000 112 NI BB NOT_NAMED 2000-12-24 06:00:00 TS 8.20000 84.0500 30 1004 newdelhi main 262 241 O___O_________ jtwc_io IO042000 7.90000 84.1000 TD 30 -1 8.50000 84.0000 DD 30 1004 2.00000 6 2 276
2000358N08086 2000 112 NI BB NOT_NAMED 2000-12-24 09:00:00 TS 8.20004 83.8798 main 241 219 P___P_________ IO042000 7.90000 83.9925 TD 30 -1 8.50008 83.7670 DD 30 1004 6 3 270
2000358N08086 2000 112 NI BB NOT_NAMED 2000-12-24 12:00:00 TS 8.20000 83.7000 30 1004 newdelhi main 219 219 O___O_________ jtwc_io IO042000 7.90000 83.9000 TD 30 -1 8.50000 83.5000 DD 30 1004 2.00000 6 2 276
2000358N08086 2000 112 NI BB NOT_NAMED 2000-12-24 15:00:00 TS 8.22122 83.6712 main 219 219 P___P_________ IO042000 7.94250 83.8425 TD 32 -1 8.49995 83.5000 DD 30 1004 6 1 309
2000358N08086 2000 112 NI BB NOT_NAMED 2000-12-24 18:00:00 TS 8.25000 83.6500 30 1004 newdelhi main 223 203 O___O_________ jtwc_io IO042000 8.00000 83.8000 TS 35 0 8.50000 83.5000 DD 30 1004 2.00000 6 2 287
2000358N08086 2000 112 NI BB NOT_NAMED 2000-12-24 21:00:00 TS 8.27504 83.4915 main 203 193 P___P_________ IO042000 8.05000 83.7500 TS 37 0 8.50008 83.2330 DD 30 1004 6 3 280
2000358N08086 2000 112 NI BB NOT_NAMED 2000-12-25 00:00:00 TS 8.30000 83.3500 30 1004 newdelhi main 193 182 O___O_________ jtwc_io IO042000 8.10000 83.7000 TS 40 0 8.50000 83.0000 DD 30 1004 2.50000 6 2 287
2000358N08086 2000 112 NI BB NOT_NAMED 2000-12-25 03:00:00 TS 8.32500 83.3288 35 1004 newdelhi main 182 182 P___O_________ IO042000 8.15000 83.6575 TS 42 0 8.50000 83.0000 CS 35 1004 2.50000 6 1 309
2000358N08086 2000 112 NI BB NOT_NAMED 2000-12-25 06:00:00 TS 8.35000 83.3000 45 1000 newdelhi main 188 182 O___O_________ jtwc_io IO042000 8.20000 83.6000 TS 45 0 8.50000 83.0000 CS 45 1000 3.00000 10 1 304
2000358N08086 2000 112 NI BB NOT_NAMED 2000-12-25 09:00:00 TS 8.37499 83.2612 main 188 178 P___P_________ IO042000 8.24999 83.5225 TS 47 0 8.50000 83.0000 CS 50 997 13 1 297
2000358N08086 2000 112 NI BB NOT_NAMED 2000-12-25 12:00:00 TS 8.40000 83.2000 55 994 newdelhi main 178 169 O___O_________ jtwc_io IO042000 8.30000 83.4000 TS 50 0 8.50000 83.0000 CS 55 994 3.50000 16 1 291
2000358N08086 2000 112 NI BB NOT_NAMED 2000-12-25 15:00:00 TS 8.42122 83.1375 main 169 159 P___P_________ IO042000 8.34246 83.2375 TS 52 0 8.49997 83.0375 CS 60 992 18 2 284
2000358N08086 2000 112 NI BB NOT_NAMED 2000-12-25 18:00:00 TS 8.45000 83.0000 65 990 newdelhi main 164 133 O___O_________ jtwc_io IO042000 8.40000 83.0000 TS 55 0 8.50000 83.0000 SCS 65 990 4.00000 20 4 281
2000358N08086 2000 112 NI BB NOT_NAMED 2000-12-25 21:00:00 TS 8.50382 82.6953 main 133 104 P___P_________ IO042000 8.50756 82.6576 TS 57 0 8.50008 82.7330 SCS 65 990 20 6 280
2000358N08086 2000 112 NI BB NOT_NAMED 2000-12-26 00:00:00 TS 8.55000 82.4000 65 990 newdelhi main 110 101 O___O_________ jtwc_io IO042000 8.60000 82.3000 TS 60 0 8.50000 82.5000 SCS 65 990 4.00000 20 4 278
2000358N08086 2000 112 NI BB NOT_NAMED 2000-12-26 03:00:00 TS 8.56120 82.2787 65 990 newdelhi main 101 59 P___O_________ IO042000 8.62240 82.0575 TS 60 0 8.50000 82.5000 VSCS 65 990 4.00000 20 5 270
2000358N08086 2000 112 NI BB NOT_NAMED 2000-12-26 06:00:00 TS 8.55000 81.9000 77 982 newdelhi main 59 15 O___O_________ jtwc_io IO042000 8.60000 81.8000 TS 60 0 8.50000 82.0000 VSCS 77 982 4.50000 30 8 268
2000358N08086 2000 112 NI BB NOT_NAMED 2000-12-26 09:00:00 TS 8.53252 81.4575 77 982 newdelhi main 15 0 P___O_________ IO042000 8.56504 81.4150 TS 62 0 8.50000 81.5000 VSCS 77 982 4.50000 28 9 267
2000358N08086 2000 112 NI BB NOT_NAMED 2000-12-26 12:00:00 TS 8.50000 81.0000 90 970 newdelhi main 0 0 O___O_________ jtwc_io IO042000 8.50000 81.0000 TY 65 1 8.50000 81.0000 VSCS 90 970 5.00000 40 6 263
2000358N08086 2000 112 NI BB NOT_NAMED 2000-12-26 15:00:00 TS 8.45374 80.8138 90 970 newdelhi main 0 0 P___O_________ IO042000 8.40748 80.6275 TY 62 0 8.50000 81.0000 VSCS 90 970 5.00000 40 4 254
2000358N08086 2000 112 NI BB NOT_NAMED 2000-12-26 18:00:00 TS 8.40000 80.6500 77 982 newdelhi main 0 0 O___O_________ jtwc_io IO042000 8.30000 80.3000 TS 60 0 8.50000 81.0000 VSCS 77 982 4.50000 30 3 249
2000358N08086 2000 112 NI BB NOT_NAMED 2000-12-26 21:00:00 TS 8.34247 80.5213 77 982 newdelhi main 0 0 P___O_________ IO042000 8.18494 80.0425 TS 60 0 8.50000 81.0000 VSCS 77 982 4.50000 28 3 248
2000358N08086 2000 112 NI BB NOT_NAMED 2000-12-27 00:00:00 TS 8.30000 80.4000 77 984 newdelhi main 0 0 O___O_________ jtwc_io IO042000 8.10000 79.8000 TS 60 0 8.50000 81.0000 VSCS 77 984 4.50000 28 8 266
2000358N08086 2000 112 NI BB NOT_NAMED 2000-12-27 03:00:00 TS 8.29251 79.7463 77 986 newdelhi main 11 11 P___O_________ IO042000 8.08502 79.4925 TS 57 0 8.50000 80.0000 VSCS 77 986 4.00000 24 10 270
2000358N08086 2000 112 NI BB NOT_NAMED 2000-12-27 06:00:00 TS 8.30000 79.3500 77 986 newdelhi main 34 45 O___O_________ jtwc_io IO042000 8.10000 79.2000 TS 55 0 8.50000 79.5000 VSCS 77 986 4.00000 24 7 270
2000358N08086 2000 112 NI BB NOT_NAMED 2000-12-27 09:00:00 TS 8.29623 78.9925 77 988 newdelhi main 77 67 P___O_________ IO042000 8.09247 78.9850 TS 52 0 8.50000 79.0000 VSCS 77 988 4.00000 22 7 270
2000358N08086 2000 112 NI BB NOT_NAMED 2000-12-27 12:00:00 TS 8.30000 78.6500 65 990 newdelhi main 67 56 O___O_________ jtwc_io IO042000 8.10000 78.8000 TS 50 0 8.50000 78.5000 SCS 65 990 3.50000 20 4 273
2000358N08086 2000 112 NI BB NOT_NAMED 2000-12-27 15:00:00 TS 8.32125 78.5500 55 996 newdelhi main 56 45 P___O_________ IO042000 8.14249 78.6000 TS 47 0 8.50000 78.5000 SCS 55 996 3.50000 16 2 284
2000358N08086 2000 112 NI BB NOT_NAMED 2000-12-27 18:00:00 TS 8.35000 78.4500 55 998 newdelhi main 44 0 O___O_________ jtwc_io IO042000 8.20000 78.4000 TS 45 0 8.50000 78.5000 SCS 55 998 3.50000 14 5 276
2000358N08086 2000 112 NI BB NOT_NAMED 2000-12-27 21:00:00 TS 8.37125 78.0962 55 1002 newdelhi main 0 0 P___O_________ IO042000 8.24250 78.1925 TS 42 0 8.50000 78.0000 CS 55 1002 3.00000 10 7 274
2000358N08086 2000 112 NI AS NOT_NAMED 2000-12-28 00:00:00 TS 8.40000 77.7500 35 1004 newdelhi main 0 0 O___O_________ jtwc_io IO042000 8.30000 78.0000 TS 40 0 8.50000 77.5000 CS 35 1004 2.50000 8 4 281
2000358N08086 2000 112 NI AS NOT_NAMED 2000-12-28 03:00:00 TS 8.45000 77.6675 35 1004 newdelhi main 0 0 P___O_________ IO042000 8.39999 77.8350 TS 35 0 8.50000 77.5000 CS 35 1004 2.50000 8 5 283
2000358N08086 2000 112 NI AS NOT_NAMED 2000-12-28 06:00:00 TS 8.50000 77.3000 30 1004 newdelhi main 0 0 O___O_________ jtwc_io IO042000 8.50000 77.7000 TD 30 -1 8.50000 77.0000 DD 30 1004 2.00000 6 7 288
2000358N08086 2000 112 NI AS NOT_NAMED 2000-12-28 09:00:00 TS 8.66537 76.9941 main 0 0 P___P_________ IO042000 8.56250 77.5925 TD 30 -1 8.71680 76.6949 DD 27 1005 5 7 305
2000358N08086 2000 112 NI AS NOT_NAMED 2000-12-28 12:00:00 TS 8.92000 76.7000 25 1006 newdelhi main 0 0 O___O_________ jtwc_io IO042000 8.60000 77.5000 TD 30 -1 9.00000 76.5000 D 25 1006 1.50000 4 9 305
2000358N08086 2000 112 NI AS NOT_NAMED 2000-12-28 15:00:00 NR 9.15458 76.2884 main 15 15 ____P_________ IO042000 TD -1 9.15458 76.2884 D 1005 7 292
2000358N08086 2000 112 NI AS NOT_NAMED 2000-12-28 18:00:00 NR 9.17674 76.0438 main 39 39 ____P_________ -1 9.17674 76.0438 D 1004 5 265
2000358N08086 2000 112 NI AS NOT_NAMED 2000-12-28 21:00:00 NR 9.11053 75.7773 main 64 64 ____P_________ -1 9.11053 75.7773 D 1003 6 252
2000358N08086 2000 112 NI AS NOT_NAMED 2000-12-29 00:00:00 NR 9.00000 75.5000 1002 newdelhi main 98 ____O_________ -1 9.00000 75.5000 L 1002 1.00000 6 248

About IBTrACS Database

This database is a web-friendly format of International Best Track Archive for Climate Stewardship (IBTrACS), a global best track data archive curated by NOAA dating back to 1842.

Updated: 2021-10-25